createdAt,value
2018-12-29T00:00:28.283Z,9.40
2018-12-29T00:02:56.953Z,9.63
2018-12-29T00:05:26.152Z,9.80
2018-12-29T00:07:55.131Z,9.83
2018-12-29T00:10:22.310Z,9.67
2018-12-29T00:12:51.683Z,9.10
2018-12-29T00:15:20.452Z,9.20
2018-12-29T00:17:48.029Z,8.97
2018-12-29T00:20:15.382Z,9.33
2018-12-29T00:22:44.992Z,8.57
2018-12-29T00:25:12.091Z,9.00
2018-12-29T00:27:40.015Z,9.47
2018-12-29T00:30:07.110Z,10.27
2018-12-29T00:32:34.214Z,10.23
2018-12-29T00:35:01.309Z,9.67
2018-12-29T00:37:28.615Z,9.77
2018-12-29T00:39:55.675Z,9.20
2018-12-29T00:42:22.767Z,9.80
2018-12-29T00:44:51.561Z,9.17
2018-12-29T00:47:19.224Z,9.33
2018-12-29T00:49:46.858Z,9.30
2018-12-29T00:52:13.960Z,9.30
2018-12-29T00:54:41.372Z,10.30
2018-12-29T00:57:08.429Z,9.50
2018-12-29T00:59:35.698Z,9.33
2018-12-29T01:02:02.808Z,9.60
2018-12-29T01:04:29.906Z,9.20
2018-12-29T01:06:56.994Z,8.87
2018-12-29T01:09:24.459Z,9.40
2018-12-29T01:11:51.564Z,9.90
2018-12-29T01:14:18.751Z,10.03
2018-12-29T01:16:46.723Z,9.00
2018-12-29T01:19:13.877Z,9.03
2018-12-29T01:21:40.971Z,9.37
2018-12-29T01:24:08.119Z,9.57
2018-12-29T01:26:35.505Z,9.43
2018-12-29T01:29:02.875Z,9.60
2018-12-29T01:31:29.971Z,9.30
2018-12-29T01:33:57.123Z,10.17
2018-12-29T01:36:24.585Z,9.33
2018-12-29T01:38:51.671Z,9.13
2018-12-29T01:41:19.054Z,8.63
2018-12-29T01:43:46.124Z,10.00
2018-12-29T01:46:13.209Z,9.60
2018-12-29T01:48:41.230Z,8.43
2018-12-29T01:51:08.353Z,8.97
2018-12-29T01:53:36.782Z,9.53
2018-12-29T01:56:03.862Z,9.43
2018-12-29T01:58:31.076Z,9.10
2018-12-29T02:00:58.137Z,9.80
2018-12-29T02:03:25.202Z,9.60
2018-12-29T02:05:53.006Z,9.63
2018-12-29T02:08:20.186Z,9.20
2018-12-29T02:10:47.270Z,8.70
2018-12-29T02:13:14.363Z,8.80
2018-12-29T02:15:41.438Z,8.33
2018-12-29T02:18:08.807Z,8.87
2018-12-29T02:20:35.863Z,8.37
2018-12-29T02:23:02.940Z,8.60
2018-12-29T02:25:30.178Z,8.97
2018-12-29T02:27:57.248Z,8.60
2018-12-29T02:30:24.352Z,9.40
2018-12-29T02:32:51.429Z,8.80
2018-12-29T02:35:18.529Z,8.70
2018-12-29T02:37:45.595Z,8.57
2018-12-29T02:40:12.696Z,9.70
2018-12-29T02:42:39.845Z,9.20
2018-12-29T02:45:06.932Z,9.13
2018-12-29T02:47:34.041Z,8.60
2018-12-29T02:50:01.128Z,9.20
2018-12-29T02:52:28.664Z,7.97
2018-12-29T02:54:55.730Z,9.13
2018-12-29T02:57:23.265Z,8.87
2018-12-29T02:59:50.320Z,9.20
2018-12-29T03:02:18.500Z,9.00
2018-12-29T03:04:45.713Z,8.03
2018-12-29T03:07:12.788Z,8.63
2018-12-29T03:09:40.160Z,8.37
2018-12-29T03:12:07.234Z,8.83
2018-12-29T03:14:35.243Z,8.40
2018-12-29T03:17:02.460Z,8.93
2018-12-29T03:19:29.612Z,8.87
2018-12-29T03:21:56.698Z,8.33
2018-12-29T03:24:24.569Z,8.20
2018-12-29T03:26:51.689Z,9.57
2018-12-29T03:29:19.916Z,9.20
2018-12-29T03:31:47.105Z,7.80
2018-12-29T03:34:14.245Z,8.60
2018-12-29T03:36:41.498Z,8.50
2018-12-29T03:39:08.572Z,8.70
2018-12-29T03:41:36.497Z,9.00
2018-12-29T03:44:03.590Z,9.23
2018-12-29T03:46:30.723Z,8.27
2018-12-29T03:48:57.786Z,8.40
2018-12-29T03:51:24.847Z,9.33
2018-12-29T03:53:52.316Z,8.60
2018-12-29T03:56:20.695Z,9.80
2018-12-29T03:58:48.139Z,9.07
2018-12-29T04:01:15.259Z,8.50
2018-12-29T04:03:42.360Z,9.40
2018-12-29T04:06:09.436Z,8.53
2018-12-29T04:08:36.728Z,8.60
2018-12-29T04:11:03.807Z,8.70
2018-12-29T04:13:34.628Z,8.10
2018-12-29T04:16:02.816Z,7.80
2018-12-29T04:18:30.107Z,7.70
2018-12-29T04:20:57.727Z,8.80
2018-12-29T04:23:25.373Z,8.93
2018-12-29T04:25:52.468Z,8.53
2018-12-29T04:28:19.535Z,8.50
2018-12-29T04:30:46.714Z,8.17
2018-12-29T04:33:14.826Z,9.00
2018-12-29T04:38:29.809Z,8.23
2018-12-29T04:43:49.483Z,8.27
2018-12-29T04:46:18.305Z,8.37
2018-12-29T04:48:45.379Z,8.03
2018-12-29T04:51:12.471Z,9.00
2018-12-29T04:53:39.559Z,9.03
2018-12-29T04:56:06.813Z,8.80
2018-12-29T04:58:33.868Z,9.23
2018-12-29T05:01:00.971Z,8.40
2018-12-29T05:03:28.030Z,9.10
2018-12-29T05:05:58.933Z,8.80
2018-12-29T05:08:27.675Z,9.23
2018-12-29T05:10:58.531Z,8.10
2018-12-29T05:13:27.963Z,9.13
2018-12-29T05:15:55.644Z,9.10
2018-12-29T05:18:22.704Z,8.07
2018-12-29T05:20:49.767Z,8.60
2018-12-29T05:23:18.273Z,8.40
2018-12-29T05:25:45.345Z,8.73
2018-12-29T05:28:12.593Z,9.33
2018-12-29T05:30:39.651Z,8.10
2018-12-29T05:33:06.720Z,8.00
2018-12-29T05:35:33.826Z,9.47
2018-12-29T05:38:00.908Z,9.10
2018-12-29T05:40:28.017Z,8.60
2018-12-29T05:42:55.116Z,8.97
2018-12-29T05:45:22.170Z,8.90
2018-12-29T05:47:49.362Z,8.70
2018-12-29T05:50:16.455Z,9.17
2018-12-29T05:52:43.561Z,9.17
2018-12-29T05:55:10.633Z,8.30
2018-12-29T05:57:37.697Z,9.77
2018-12-29T06:00:04.832Z,9.90
2018-12-29T06:02:31.905Z,8.73
2018-12-29T06:04:59.003Z,10.00
2018-12-29T06:07:26.151Z,9.13
2018-12-29T06:09:53.219Z,8.83
2018-12-29T06:12:20.321Z,9.83
2018-12-29T06:14:47.423Z,8.97
2018-12-29T06:17:15.038Z,9.60
2018-12-29T06:19:42.219Z,8.57
2018-12-29T06:22:09.283Z,9.37
2018-12-29T06:24:36.371Z,8.67
2018-12-29T06:27:03.443Z,8.60
2018-12-29T06:29:30.630Z,8.57
2018-12-29T06:31:57.700Z,9.43
2018-12-29T06:34:24.766Z,7.97
2018-12-29T06:36:51.963Z,8.27
2018-12-29T06:39:19.092Z,8.50
2018-12-29T06:41:46.190Z,8.77
2018-12-29T06:44:13.294Z,9.37
2018-12-29T06:46:40.391Z,9.37
2018-12-29T06:49:07.481Z,8.57
2018-12-29T06:51:34.565Z,9.00
2018-12-29T06:54:01.677Z,9.00
2018-12-29T06:56:28.854Z,8.97
2018-12-29T06:58:57.443Z,8.93
2018-12-29T07:01:24.558Z,8.10
2018-12-29T07:03:51.790Z,8.83
2018-12-29T07:06:19.378Z,9.47
2018-12-29T07:08:47.867Z,8.30
2018-12-29T07:11:18.159Z,9.47
2018-12-29T07:13:45.267Z,8.80
2018-12-29T07:16:12.330Z,8.00
2018-12-29T07:18:39.563Z,8.27
2018-12-29T07:21:06.669Z,8.53
2018-12-29T07:23:33.775Z,8.47
2018-12-29T07:26:00.882Z,8.60
2018-12-29T07:28:29.723Z,8.60
2018-12-29T07:30:57.091Z,8.43
2018-12-29T07:33:26.125Z,8.37
2018-12-29T07:35:54.464Z,7.70
2018-12-29T07:38:23.262Z,8.50
2018-12-29T07:40:52.404Z,9.77
2018-12-29T07:43:20.018Z,7.80
2018-12-29T07:45:49.623Z,9.13
2018-12-29T07:48:18.456Z,8.00
2018-12-29T07:50:45.857Z,9.03
2018-12-29T07:53:15.877Z,7.63
2018-12-29T07:58:32.753Z,7.83
2018-12-29T08:01:00.171Z,7.67
2018-12-29T08:03:34.541Z,8.10
2018-12-29T08:06:01.773Z,8.40
2018-12-29T08:08:29.927Z,7.90
2018-12-29T08:10:58.470Z,7.93
2018-12-29T08:13:35.702Z,8.73
2018-12-29T08:15:59.149Z,9.60
2018-12-29T08:18:26.225Z,8.70
2018-12-29T08:20:53.298Z,8.90
2018-12-29T08:23:20.555Z,9.07
2018-12-29T08:25:47.619Z,8.30
2018-12-29T08:37:00.540Z,8.70
2018-12-29T08:39:35.914Z,8.67
2018-12-29T08:42:13.479Z,8.60
2018-12-29T08:44:39.003Z,8.07
2018-12-29T08:47:07.131Z,8.33
2018-12-29T08:49:35.112Z,7.60
2018-12-29T08:52:15.335Z,8.43
2018-12-29T08:54:56.288Z,8.30
2018-12-29T08:57:33.932Z,6.90
2018-12-29T09:02:50.282Z,7.70
2018-12-29T09:05:17.386Z,7.37
2018-12-29T09:07:46.206Z,9.17
2018-12-29T09:10:16.014Z,7.70
2018-12-29T09:12:44.836Z,7.20
2018-12-29T09:15:14.261Z,6.80
2018-12-29T09:17:41.463Z,8.00
2018-12-29T09:20:08.638Z,7.57
2018-12-29T09:22:35.754Z,6.97
2018-12-29T09:25:02.872Z,8.50
2018-12-29T09:27:30.013Z,7.00
2018-12-29T09:29:57.106Z,8.10
2018-12-29T09:32:25.352Z,8.23
2018-12-29T09:35:10.711Z,7.73
2018-12-29T09:37:39.288Z,7.47
2018-12-29T09:40:06.376Z,7.63
2018-12-29T09:42:33.458Z,7.83
2018-12-29T09:45:00.528Z,8.50
2018-12-29T09:47:27.698Z,8.10
2018-12-29T09:49:54.851Z,7.93
2018-12-29T09:52:21.919Z,7.73
2018-12-29T09:54:48.992Z,8.07
2018-12-29T09:57:16.274Z,7.63
2018-12-29T09:59:43.353Z,8.27
2018-12-29T10:02:10.466Z,8.40
2018-12-29T10:04:37.592Z,7.83
2018-12-29T10:07:04.681Z,8.40
2018-12-29T10:09:31.733Z,6.93
2018-12-29T10:11:58.831Z,7.70
2018-12-29T10:14:25.977Z,8.50
2018-12-29T10:16:53.151Z,7.43
2018-12-29T10:19:20.295Z,7.70
2018-12-29T10:21:47.404Z,6.73
2018-12-29T10:24:14.475Z,8.50
2018-12-29T10:26:41.697Z,8.00
2018-12-29T10:29:08.775Z,8.20
2018-12-29T10:31:35.897Z,8.17
2018-12-29T10:34:02.966Z,7.10
2018-12-29T10:36:30.027Z,7.90
2018-12-29T10:38:57.323Z,7.50
2018-12-29T10:41:24.383Z,7.50
2018-12-29T10:43:51.595Z,7.07
2018-12-29T10:46:18.721Z,7.70
2018-12-29T10:48:45.928Z,7.93
2018-12-29T10:51:13.012Z,7.43
2018-12-29T10:53:40.083Z,7.87
2018-12-29T10:56:07.263Z,7.73
2018-12-29T10:58:34.320Z,7.73
2018-12-29T11:01:01.435Z,8.60
2018-12-29T11:03:28.559Z,9.10
2018-12-29T11:05:55.682Z,8.43
2018-12-29T11:08:22.755Z,7.03
2018-12-29T11:10:49.853Z,7.07
2018-12-29T11:13:17.109Z,7.70
2018-12-29T11:15:44.186Z,8.20
2018-12-29T11:18:11.315Z,7.63
2018-12-29T11:20:38.428Z,7.53
2018-12-29T11:23:05.539Z,7.70
2018-12-29T11:25:32.618Z,6.43
2018-12-29T11:27:59.918Z,7.23
2018-12-29T11:30:26.987Z,7.20
2018-12-29T11:32:54.066Z,7.90
2018-12-29T11:35:28.800Z,7.07
2018-12-29T11:37:53.153Z,7.93
2018-12-29T11:40:20.224Z,7.20
2018-12-29T11:42:47.318Z,7.93
2018-12-29T11:45:14.399Z,7.30
2018-12-29T11:47:41.543Z,7.00
2018-12-29T11:50:08.667Z,7.30
2018-12-29T11:52:35.807Z,7.73
2018-12-29T11:55:02.901Z,7.50
2018-12-29T11:57:29.977Z,7.27
2018-12-29T11:59:57.267Z,8.10
2018-12-29T12:02:24.863Z,7.30
2018-12-29T12:04:52.070Z,7.33
2018-12-29T12:07:19.175Z,8.07
2018-12-29T12:09:46.318Z,8.00
2018-12-29T12:12:13.463Z,8.17
2018-12-29T12:14:40.582Z,7.83
2018-12-29T12:17:07.918Z,7.27
2018-12-29T12:19:35.351Z,7.70
2018-12-29T12:22:02.411Z,7.23
2018-12-29T12:24:29.521Z,7.33
2018-12-29T12:26:56.647Z,8.07
2018-12-29T12:29:23.882Z,7.40
2018-12-29T12:31:51.037Z,7.93
2018-12-29T12:34:18.174Z,8.70
2018-12-29T12:36:45.438Z,7.60
2018-12-29T12:39:12.584Z,6.90
2018-12-29T12:41:39.755Z,6.87
2018-12-29T12:44:06.895Z,7.37
2018-12-29T12:46:34.063Z,7.93
2018-12-29T12:49:01.297Z,7.53
2018-12-29T12:51:28.500Z,7.90
2018-12-29T12:53:55.682Z,8.50
2018-12-29T12:56:23.075Z,8.20
2018-12-29T12:58:50.453Z,7.80
2018-12-29T13:01:17.901Z,8.33
2018-12-29T13:03:45.004Z,7.30
2018-12-29T13:06:12.146Z,8.93
2018-12-29T13:08:39.336Z,7.70
2018-12-29T13:11:06.428Z,8.30
2018-12-29T13:13:33.602Z,8.07
2018-12-29T13:16:00.670Z,8.47
2018-12-29T13:18:27.847Z,8.17
2018-12-29T13:20:56.835Z,8.20
2018-12-29T13:23:23.978Z,8.20
2018-12-29T13:25:51.314Z,8.17
2018-12-29T13:28:19.726Z,7.90
2018-12-29T13:30:48.524Z,7.90
2018-12-29T13:33:15.726Z,8.03
2018-12-29T13:35:42.803Z,8.13
2018-12-29T13:38:10.018Z,7.50
2018-12-29T13:40:37.074Z,7.77
2018-12-29T13:43:04.192Z,8.53
2018-12-29T13:48:27.484Z,8.67
2018-12-29T13:50:55.723Z,8.00
2018-12-29T13:53:22.792Z,8.30
2018-12-29T13:55:49.986Z,8.30
2018-12-29T13:58:17.058Z,8.80
2018-12-29T14:00:44.214Z,7.87
2018-12-29T14:03:11.563Z,9.07
2018-12-29T14:05:38.660Z,7.20
2018-12-29T14:08:05.804Z,8.17
2018-12-29T14:10:32.965Z,7.73
2018-12-29T14:13:00.376Z,7.90
2018-12-29T14:15:27.551Z,7.80
2018-12-29T14:17:54.753Z,8.50
2018-12-29T14:20:21.835Z,7.77
2018-12-29T14:22:48.941Z,8.50
2018-12-29T14:25:16.043Z,7.33
2018-12-29T14:27:43.120Z,7.43
2018-12-29T14:30:11.627Z,8.07
2018-12-29T14:32:38.721Z,7.60
2018-12-29T14:35:05.796Z,8.40
2018-12-29T14:37:33.179Z,7.43
2018-12-29T14:40:00.318Z,8.00
2018-12-29T14:42:27.758Z,8.03
2018-12-29T14:44:54.956Z,8.63
2018-12-29T14:47:22.704Z,8.27
2018-12-29T14:49:50.050Z,9.07
2018-12-29T14:52:17.150Z,7.87
2018-12-29T14:54:44.320Z,7.17
2018-12-29T14:57:11.650Z,8.00
2018-12-29T14:59:39.110Z,8.10
2018-12-29T15:02:07.334Z,7.63
2018-12-29T15:04:34.497Z,8.37
2018-12-29T15:07:01.574Z,7.43
2018-12-29T15:09:29.057Z,7.87
2018-12-29T15:11:56.199Z,8.43
2018-12-29T15:14:25.552Z,7.63
2018-12-29T15:16:52.951Z,7.63
2018-12-29T15:19:20.111Z,7.33
2018-12-29T15:21:47.251Z,6.87
2018-12-29T15:24:14.350Z,8.90
2018-12-29T15:26:41.524Z,7.70
2018-12-29T15:29:09.161Z,7.60
2018-12-29T15:31:36.302Z,8.53
2018-12-29T15:34:03.370Z,7.70
2018-12-29T15:36:30.719Z,8.30
2018-12-29T15:38:57.871Z,8.50
2018-12-29T15:41:25.063Z,7.20
2018-12-29T15:43:52.588Z,7.47
2018-12-29T15:46:19.731Z,8.87
2018-12-29T15:48:51.176Z,8.57
2018-12-29T15:51:15.742Z,8.00
2018-12-29T15:53:42.917Z,8.10
2018-12-29T15:56:10.168Z,7.70
2018-12-29T15:58:37.304Z,6.93
2018-12-29T16:01:04.651Z,7.90
2018-12-29T16:03:31.795Z,7.90
2018-12-29T16:05:58.970Z,7.70
2018-12-29T16:08:26.657Z,7.40
2018-12-29T16:10:54.157Z,8.30
2018-12-29T16:13:21.549Z,7.80
2018-12-29T16:15:50.462Z,7.87
2018-12-29T16:18:19.578Z,7.57
2018-12-29T16:20:54.293Z,7.63
2018-12-29T16:23:19.454Z,7.50
2018-12-29T16:25:47.124Z,7.50
2018-12-29T16:28:14.295Z,8.00
2018-12-29T16:30:41.459Z,7.67
2018-12-29T16:33:08.640Z,7.20
2018-12-29T16:35:35.891Z,7.20
2018-12-29T16:38:03.508Z,7.60
2018-12-29T16:40:30.644Z,7.87
2018-12-29T16:42:57.938Z,7.20
2018-12-29T16:45:25.201Z,8.53
2018-12-29T16:47:52.984Z,7.90
2018-12-29T16:50:20.170Z,8.63
2018-12-29T16:52:47.372Z,9.00
2018-12-29T16:55:14.571Z,7.90
2018-12-29T16:57:42.499Z,8.87
2018-12-29T17:00:10.063Z,7.73
2018-12-29T17:02:37.239Z,7.50
2018-12-29T17:05:04.875Z,8.18
2018-12-29T17:07:32.167Z,8.83
2018-12-29T17:09:59.353Z,8.63
2018-12-29T17:12:26.488Z,9.33
2018-12-29T17:14:53.646Z,9.23
2018-12-29T17:17:21.848Z,8.80
2018-12-29T17:19:48.979Z,8.77
2018-12-29T17:22:17.224Z,9.50
2018-12-29T17:24:44.503Z,8.97
2018-12-29T17:27:12.165Z,9.10
2018-12-29T17:29:39.242Z,9.77
2018-12-29T17:32:06.392Z,9.20
2018-12-29T17:34:33.583Z,7.70
2018-12-29T17:37:03.060Z,8.63
2018-12-29T17:39:30.120Z,8.10
2018-12-29T17:41:57.389Z,8.97
2018-12-29T17:44:24.609Z,8.60
2018-12-29T17:46:51.739Z,7.70
2018-12-29T17:49:22.847Z,9.10
2018-12-29T17:51:47.664Z,7.90
2018-12-29T17:54:14.806Z,8.50
2018-12-29T17:56:42.148Z,7.20
2018-12-29T17:59:09.495Z,8.40
2018-12-29T18:01:36.660Z,8.27
2018-12-29T18:04:03.819Z,8.87
2018-12-29T18:06:31.136Z,8.00
2018-12-29T18:08:58.472Z,8.50
2018-12-29T18:11:25.686Z,8.47
2018-12-29T18:13:52.837Z,8.53
2018-12-29T18:16:20.349Z,8.30
2018-12-29T18:18:47.497Z,7.77
2018-12-29T18:21:14.677Z,6.90
2018-12-29T18:23:41.850Z,8.43
2018-12-29T18:26:08.991Z,8.47
2018-12-29T18:28:37.619Z,8.53
2018-12-29T18:31:04.882Z,7.50
2018-12-29T18:33:37.260Z,9.50
2018-12-29T18:36:00.817Z,8.30
2018-12-29T18:38:27.928Z,9.50
2018-12-29T18:40:55.085Z,9.20
2018-12-29T18:43:22.211Z,9.23
2018-12-29T18:45:49.368Z,7.93
2018-12-29T18:48:16.767Z,8.50
2018-12-29T18:50:44.287Z,8.00
2018-12-29T18:53:11.538Z,8.20
2018-12-29T18:55:38.699Z,7.40
2018-12-29T18:58:05.910Z,6.90
2018-12-29T19:00:33.278Z,7.43
2018-12-29T19:03:00.768Z,8.10
2018-12-29T19:05:28.194Z,7.63
2018-12-29T19:07:55.428Z,7.43
2018-12-29T19:10:22.984Z,8.27
2018-12-29T19:12:51.644Z,7.70
2018-12-29T19:15:19.088Z,8.17
2018-12-29T19:17:46.763Z,7.53
2018-12-29T19:20:14.650Z,7.60
2018-12-29T19:22:41.759Z,7.20
2018-12-29T19:25:08.893Z,7.03
2018-12-29T19:27:36.245Z,7.80
2018-12-29T19:30:03.420Z,7.90
2018-12-29T19:32:30.967Z,7.73
2018-12-29T19:34:58.457Z,8.33
2018-12-29T19:37:25.928Z,8.20
2018-12-29T19:39:53.459Z,8.47
2018-12-29T19:42:20.748Z,6.93
2018-12-29T19:44:48.417Z,7.13
2018-12-29T19:47:15.578Z,7.80
2018-12-29T19:49:43.247Z,6.80
2018-12-29T19:52:10.387Z,7.27
2018-12-29T19:54:37.699Z,8.07
2018-12-29T19:57:05.379Z,7.70
2018-12-29T19:59:32.927Z,6.43
2018-12-29T20:02:00.459Z,7.40
2018-12-29T20:04:27.795Z,6.87
2018-12-29T20:06:55.292Z,7.07
2018-12-29T20:09:24.537Z,7.50
2018-12-29T20:11:51.699Z,7.80
2018-12-29T20:14:18.920Z,7.53
2018-12-29T20:16:46.071Z,8.10
2018-12-29T20:19:13.419Z,6.73
2018-12-29T20:21:40.602Z,7.23
2018-12-29T20:24:07.878Z,6.63
2018-12-29T20:26:35.599Z,7.50
2018-12-29T20:29:02.955Z,7.17
2018-12-29T20:31:30.252Z,7.57
2018-12-29T20:33:57.470Z,8.43
2018-12-29T20:36:24.670Z,8.30
2018-12-29T20:38:51.929Z,7.40
2018-12-29T20:41:19.387Z,6.80
2018-12-29T20:43:46.614Z,6.70
2018-12-29T20:46:13.835Z,7.30
2018-12-29T20:48:45.311Z,6.53
2018-12-29T20:51:26.924Z,7.37
2018-12-29T20:54:05.721Z,8.00
2018-12-29T20:56:34.236Z,7.40
2018-12-29T20:59:01.473Z,8.13
2018-12-29T21:01:29.718Z,7.30
2018-12-29T21:03:59.897Z,8.20
2018-12-29T21:06:30.338Z,7.57
2018-12-29T21:08:57.511Z,7.67
2018-12-29T21:11:25.385Z,7.60
2018-12-29T21:13:52.614Z,7.50
2018-12-29T21:16:19.970Z,6.40
2018-12-29T21:18:47.687Z,7.30
2018-12-29T21:21:14.844Z,7.53
2018-12-29T21:23:44.569Z,7.33
2018-12-29T21:26:11.691Z,7.30
2018-12-29T21:28:39.785Z,7.60
2018-12-29T21:31:07.209Z,7.63
2018-12-29T21:33:35.831Z,7.50
2018-12-29T21:36:04.807Z,7.80
2018-12-29T21:38:32.092Z,7.10
2018-12-29T21:40:59.628Z,7.67
2018-12-29T21:43:27.451Z,7.77
2018-12-29T21:45:54.835Z,7.40
2018-12-29T21:48:22.232Z,7.53
2018-12-29T21:50:49.507Z,8.03
2018-12-29T21:53:16.737Z,7.13
2018-12-29T21:55:44.489Z,7.37
2018-12-29T21:58:12.196Z,6.80
2018-12-29T22:00:39.691Z,6.53
2018-12-29T22:03:07.272Z,7.23
2018-12-29T22:05:34.528Z,7.50
2018-12-29T22:08:02.021Z,6.70
2018-12-29T22:10:29.268Z,6.53
2018-12-29T22:12:56.434Z,8.00
2018-12-29T22:15:23.611Z,7.23
2018-12-29T22:17:51.653Z,6.97
2018-12-29T22:20:19.707Z,6.90
2018-12-29T22:22:46.941Z,6.70
2018-12-29T22:25:14.123Z,6.50
2018-12-29T22:27:42.185Z,6.00
2018-12-29T22:30:09.322Z,5.90
2018-12-29T22:32:36.913Z,6.53
2018-12-29T22:35:09.289Z,6.03
2018-12-29T22:37:36.884Z,7.00
2018-12-29T22:40:04.047Z,6.10
2018-12-29T22:42:31.207Z,7.07
2018-12-29T22:44:58.441Z,6.20
2018-12-29T22:47:26.375Z,6.07
2018-12-29T22:49:55.236Z,5.40
2018-12-29T22:52:22.448Z,5.93
2018-12-29T22:54:49.657Z,6.20
2018-12-29T22:57:16.843Z,5.40
2018-12-29T22:59:43.913Z,5.33
2018-12-29T23:02:11.299Z,6.37
2018-12-29T23:04:38.405Z,5.57
2018-12-29T23:07:06.011Z,5.33
2018-12-29T23:09:33.261Z,5.20
2018-12-29T23:12:00.427Z,5.10
2018-12-29T23:14:27.594Z,5.10
2018-12-29T23:16:55.460Z,4.87
2018-12-29T23:19:23.056Z,5.33
2018-12-29T23:21:50.155Z,4.77
2018-12-29T23:24:17.521Z,5.03
2018-12-29T23:26:44.692Z,4.70
2018-12-29T23:29:12.249Z,5.30
2018-12-29T23:31:39.475Z,4.60
2018-12-29T23:34:06.652Z,4.93
2018-12-29T23:36:33.780Z,5.00
2018-12-29T23:39:01.071Z,4.70
2018-12-29T23:41:28.213Z,4.53
2018-12-29T23:43:55.384Z,4.43
2018-12-29T23:46:22.639Z,4.60
2018-12-29T23:48:49.776Z,3.70
2018-12-29T23:51:17.021Z,4.47
2018-12-29T23:53:44.167Z,4.50
2018-12-29T23:56:11.854Z,4.20
2018-12-29T23:58:38.982Z,4.43
